In Rescue
 
Open Full Screen Window  High Contrast Mode
Wind Gusting 00 knots
04
March 29, 2020 8:56 PM EDT
Weather Information
Wind Direction
  150 °
Wind Speed
  04 kt (5 mph)
Wind Gust
  00 kt (0 mph)
Altimeter
29.95 in
Visibility
10 SM
Temperature
02° C
36° F
Dewpoint
00° C
32° F
Humidity
87%
Sky Condition
Overcast @ 2,200 ft
Scattered @ 1,700 ft
MVFR

METAR KCDA 300056Z AUTO 15004KT 10SM SCT017 OVC022 02/00 A2995 RMK AO2 T00180004

FAA Disclaimer: The data displayed is for advisory purposes only and is not to be used for flight planning or operations.